RYS7JT EPKT-LGKR
Flight info
| Callsign | RYS7JT |
|---|---|
| Flight time | 1h 52m |
| Altitude | 37000 |
| Route | BABKO DCT DEMOP DCT ABONY DCT PARAK DCT REDVA UL616 KOGAT DCT BITLA UN731 YNN |
| Aircraft | B738/M-SDE2E3FGHIRWXY/LB1 |
Departure
| Time | 2026-05-06 14:16 |
|---|---|
| Airport | Katowice Wojciech Korfanty International Airport (EPKT) |
Arrival
| Time | 2026-05-06 16:08 |
|---|---|
| Airport | Corfu Ioannis Kapodistrias International Airport (LGKR) |
| Time | Latitude | Longitude | Altitude | Speed | Heading |
|---|---|---|---|---|---|
| 2026-05-06 13:45 | 50.47143 | 19.07966 | 1000 ft | 0 kts | 180° |
| 2026-05-06 14:08 | 50.47156 | 19.07966 | 997 ft | 3 kts | 180° |
| 2026-05-06 14:08 | 50.47176 | 19.07966 | 1001 ft | 3 kts | 180° |
| 2026-05-06 14:08 | 50.47194 | 19.07967 | 997 ft | 3 kts | 180° |
| 2026-05-06 14:08 | 50.47214 | 19.07964 | 997 ft | 3 kts | 162° |
| 2026-05-06 14:09 | 50.47229 | 19.07951 | 998 ft | 3 kts | 121° |
| 2026-05-06 14:09 | 50.47233 | 19.07925 | 997 ft | 3 kts | 90° |
| 2026-05-06 14:09 | 50.47233 | 19.07894 | 997 ft | 2 kts | 90° |
| 2026-05-06 14:09 | 50.47233 | 19.07892 | 997 ft | 1 kts | 90° |
| 2026-05-06 14:12 | 50.47233 | 19.07897 | 997 ft | 2 kts | 90° |
| 2026-05-06 14:12 | 50.47233 | 19.07972 | 997 ft | 12 kts | 90° |
| 2026-05-06 14:12 | 50.47233 | 19.08133 | 1001 ft | 16 kts | 90° |
| 2026-05-06 14:12 | 50.47231 | 19.08303 | 1003 ft | 16 kts | 91° |
| 2026-05-06 14:13 | 50.47229 | 19.08481 | 999 ft | 17 kts | 91° |
| 2026-05-06 14:13 | 50.47231 | 19.08676 | 1003 ft | 19 kts | 89° |
| 2026-05-06 14:13 | 50.47231 | 19.08876 | 1001 ft | 18 kts | 90° |
| 2026-05-06 14:13 | 50.47231 | 19.09070 | 999 ft | 17 kts | 90° |
| 2026-05-06 14:14 | 50.47230 | 19.09257 | 999 ft | 17 kts | 90° |
| 2026-05-06 14:14 | 50.47279 | 19.09391 | 997 ft | 16 kts | 8° |
| 2026-05-06 14:14 | 50.47390 | 19.09390 | 998 ft | 16 kts | 1° |
| 2026-05-06 14:14 | 50.47497 | 19.09391 | 998 ft | 15 kts | 0° |
| 2026-05-06 14:15 | 50.47589 | 19.09346 | 999 ft | 14 kts | 303° |
| 2026-05-06 14:15 | 50.47598 | 19.09175 | 1001 ft | 27 kts | 270° |
| 2026-05-06 14:15 | 50.47599 | 19.08455 | 996 ft | 103 kts | 270° |
| 2026-05-06 14:15 | 50.47597 | 19.06977 | 1002 ft | 165 kts | 269° |
| 2026-05-06 14:16 | 50.47616 | 19.05049 | 1545 ft | 184 kts | 268° |
| 2026-05-06 14:16 | 50.47635 | 19.03121 | 2699 ft | 170 kts | 268° |
| 2026-05-06 14:16 | 50.47644 | 19.01245 | 3653 ft | 174 kts | 268° |
| 2026-05-06 14:16 | 50.47657 | 18.99265 | 4427 ft | 191 kts | 267° |
| 2026-05-06 14:17 | 50.47521 | 18.97094 | 4830 ft | 212 kts | 245° |
| 2026-05-06 14:17 | 50.46613 | 18.95274 | 5486 ft | 219 kts | 220° |
| 2026-05-06 14:17 | 50.45194 | 18.94029 | 5828 ft | 249 kts | 197° |
| 2026-05-06 14:17 | 50.43432 | 18.93670 | 6598 ft | 261 kts | 185° |
| 2026-05-06 14:18 | 50.41600 | 18.93661 | 7448 ft | 266 kts | 182° |
| 2026-05-06 14:18 | 50.39748 | 18.93704 | 8454 ft | 266 kts | 182° |
| 2026-05-06 14:18 | 50.38519 | 18.93726 | 9042 ft | 269 kts | 182° |
| 2026-05-06 14:18 | 50.36631 | 18.93738 | 9905 ft | 273 kts | 183° |
| 2026-05-06 14:19 | 50.34683 | 18.93734 | 10412 ft | 291 kts | 183° |
| 2026-05-06 14:19 | 50.32562 | 18.93740 | 10663 ft | 317 kts | 179° |
| 2026-05-06 14:19 | 50.30386 | 18.94645 | 11231 ft | 335 kts | 156° |
| 2026-05-06 14:19 | 50.28526 | 18.96925 | 12044 ft | 348 kts | 134° |
| 2026-05-06 14:20 | 50.27261 | 19.00215 | 12880 ft | 358 kts | 120° |
| 2026-05-06 14:20 | 50.26072 | 19.03652 | 13597 ft | 361 kts | 131° |
| 2026-05-06 14:20 | 50.24288 | 19.06337 | 14291 ft | 355 kts | 151° |
| 2026-05-06 14:20 | 50.22103 | 19.08054 | 15126 ft | 350 kts | 161° |
| 2026-05-06 14:21 | 50.19841 | 19.09497 | 15852 ft | 353 kts | 162° |
| 2026-05-06 14:21 | 50.17548 | 19.10928 | 16569 ft | 357 kts | 162° |
| 2026-05-06 14:21 | 50.15234 | 19.12376 | 17307 ft | 360 kts | 162° |
| 2026-05-06 14:21 | 50.12905 | 19.13847 | 18031 ft | 363 kts | 162° |
| 2026-05-06 14:22 | 50.10550 | 19.15346 | 18666 ft | 367 kts | 162° |
| 2026-05-06 14:22 | 50.08183 | 19.16861 | 19250 ft | 371 kts | 162° |
| 2026-05-06 14:22 | 50.05813 | 19.18383 | 19836 ft | 375 kts | 161° |
| 2026-05-06 14:22 | 50.03367 | 19.19957 | 20440 ft | 378 kts | 161° |
| 2026-05-06 14:23 | 50.00953 | 19.21512 | 21015 ft | 381 kts | 161° |
| 2026-05-06 14:23 | 49.98460 | 19.23116 | 21597 ft | 385 kts | 161° |
| 2026-05-06 14:23 | 49.96013 | 19.24689 | 22169 ft | 388 kts | 161° |
| 2026-05-06 14:23 | 49.93506 | 19.26299 | 22737 ft | 391 kts | 161° |
| 2026-05-06 14:24 | 49.90980 | 19.27919 | 23291 ft | 394 kts | 161° |
| 2026-05-06 14:24 | 49.88439 | 19.29547 | 23768 ft | 397 kts | 161° |
| 2026-05-06 14:24 | 49.85875 | 19.31187 | 24224 ft | 400 kts | 161° |
| 2026-05-06 14:24 | 49.83253 | 19.32864 | 24670 ft | 403 kts | 161° |
| 2026-05-06 14:25 | 49.80689 | 19.34501 | 25100 ft | 406 kts | 161° |
| 2026-05-06 14:25 | 49.78064 | 19.36176 | 25508 ft | 409 kts | 161° |
| 2026-05-06 14:25 | 49.75421 | 19.37860 | 25936 ft | 412 kts | 162° |
| 2026-05-06 14:25 | 49.72727 | 19.39574 | 26352 ft | 415 kts | 161° |
| 2026-05-06 14:26 | 49.70081 | 19.41258 | 26760 ft | 418 kts | 162° |
| 2026-05-06 14:26 | 49.67378 | 19.42976 | 27139 ft | 422 kts | 162° |
| 2026-05-06 14:26 | 49.64648 | 19.44707 | 27500 ft | 425 kts | 162° |
| 2026-05-06 14:26 | 49.61902 | 19.46442 | 27894 ft | 428 kts | 162° |
| 2026-05-06 14:27 | 49.59092 | 19.47942 | 28273 ft | 427 kts | 167° |
| 2026-05-06 14:27 | 49.56230 | 19.49186 | 28629 ft | 429 kts | 169° |
| 2026-05-06 14:27 | 49.53335 | 19.50359 | 28984 ft | 432 kts | 170° |
| 2026-05-06 14:27 | 49.50405 | 19.51527 | 29325 ft | 435 kts | 170° |
| 2026-05-06 14:28 | 49.47914 | 19.52524 | 29623 ft | 437 kts | 170° |
| 2026-05-06 14:28 | 49.44953 | 19.53726 | 29972 ft | 439 kts | 169° |
| 2026-05-06 14:28 | 49.41997 | 19.54940 | 30245 ft | 442 kts | 169° |
| 2026-05-06 14:28 | 49.39022 | 19.56172 | 30523 ft | 444 kts | 169° |
| 2026-05-06 14:29 | 49.36040 | 19.57414 | 30848 ft | 445 kts | 169° |
| 2026-05-06 14:29 | 49.33061 | 19.58657 | 31240 ft | 443 kts | 169° |
| 2026-05-06 14:29 | 49.30078 | 19.59903 | 31655 ft | 442 kts | 169° |
| 2026-05-06 14:29 | 49.27115 | 19.61138 | 32014 ft | 442 kts | 169° |
| 2026-05-06 14:30 | 49.24143 | 19.62374 | 32352 ft | 443 kts | 169° |
| 2026-05-06 14:30 | 49.21186 | 19.63601 | 32731 ft | 441 kts | 169° |
| 2026-05-06 14:30 | 49.18229 | 19.64827 | 33095 ft | 440 kts | 170° |
| 2026-05-06 14:30 | 49.15267 | 19.66052 | 33354 ft | 442 kts | 169° |
| 2026-05-06 14:31 | 49.12298 | 19.67278 | 33634 ft | 443 kts | 170° |
| 2026-05-06 14:31 | 49.09315 | 19.68510 | 33989 ft | 442 kts | 170° |
| 2026-05-06 14:31 | 49.06347 | 19.69735 | 34323 ft | 441 kts | 170° |
| 2026-05-06 14:31 | 49.03390 | 19.70954 | 34620 ft | 440 kts | 170° |
| 2026-05-06 14:32 | 49.00434 | 19.72171 | 34881 ft | 440 kts | 170° |
| 2026-05-06 14:32 | 48.97473 | 19.73388 | 35148 ft | 440 kts | 170° |
| 2026-05-06 14:32 | 48.94560 | 19.74582 | 35423 ft | 439 kts | 170° |
| 2026-05-06 14:32 | 48.91574 | 19.75806 | 35626 ft | 439 kts | 170° |
| 2026-05-06 14:33 | 48.88619 | 19.77016 | 35838 ft | 439 kts | 171° |
| 2026-05-06 14:33 | 48.85677 | 19.78218 | 36120 ft | 438 kts | 171° |
| 2026-05-06 14:33 | 48.82742 | 19.79417 | 36428 ft | 436 kts | 171° |
| 2026-05-06 14:33 | 48.79805 | 19.80615 | 36714 ft | 435 kts | 171° |
| 2026-05-06 14:34 | 48.76926 | 19.81788 | 36916 ft | 436 kts | 171° |
| 2026-05-06 14:34 | 48.73980 | 19.82983 | 36895 ft | 440 kts | 171° |
| 2026-05-06 14:34 | 48.68026 | 19.85400 | 36901 ft | 438 kts | 171° |
| 2026-05-06 14:35 | 48.62203 | 19.87763 | 36889 ft | 434 kts | 171° |
| 2026-05-06 14:35 | 48.56377 | 19.90119 | 36890 ft | 433 kts | 171° |
| 2026-05-06 14:36 | 48.50572 | 19.92459 | 36893 ft | 432 kts | 171° |
| 2026-05-06 14:36 | 48.44755 | 19.94797 | 36889 ft | 433 kts | 171° |
| 2026-05-06 14:37 | 48.38924 | 19.97137 | 36908 ft | 434 kts | 171° |
| 2026-05-06 14:37 | 48.33081 | 19.99476 | 36901 ft | 436 kts | 171° |
| 2026-05-06 14:38 | 48.27205 | 20.01827 | 36898 ft | 438 kts | 171° |
| 2026-05-06 14:38 | 48.21305 | 20.04179 | 36898 ft | 439 kts | 171° |
| 2026-05-06 14:39 | 48.15343 | 20.05631 | 36891 ft | 430 kts | 186° |
| 2026-05-06 14:39 | 48.09397 | 20.05115 | 36895 ft | 429 kts | 189° |
| 2026-05-06 14:40 | 48.03440 | 20.04500 | 36903 ft | 430 kts | 189° |
| 2026-05-06 14:40 | 47.97464 | 20.03937 | 36898 ft | 431 kts | 188° |
| 2026-05-06 14:41 | 47.91480 | 20.03408 | 36894 ft | 431 kts | 188° |
| 2026-05-06 14:41 | 47.85497 | 20.02891 | 36892 ft | 430 kts | 188° |
| 2026-05-06 14:42 | 47.79558 | 20.02379 | 36900 ft | 430 kts | 188° |
| 2026-05-06 14:42 | 47.73592 | 20.01864 | 36892 ft | 430 kts | 188° |
| 2026-05-06 14:43 | 47.67636 | 20.01351 | 36891 ft | 429 kts | 188° |
| 2026-05-06 14:43 | 47.61680 | 20.00839 | 36895 ft | 428 kts | 189° |
| 2026-05-06 14:44 | 47.55726 | 20.00329 | 36897 ft | 428 kts | 189° |
| 2026-05-06 14:45 | 47.46812 | 19.99568 | 36900 ft | 428 kts | 189° |
| 2026-05-06 14:45 | 47.40859 | 19.99062 | 36898 ft | 428 kts | 189° |
| 2026-05-06 14:46 | 47.34916 | 19.98557 | 36902 ft | 428 kts | 189° |
| 2026-05-06 14:46 | 47.28966 | 19.98053 | 36902 ft | 428 kts | 189° |
| 2026-05-06 14:47 | 47.22969 | 19.98171 | 36916 ft | 434 kts | 182° |
| 2026-05-06 14:47 | 47.16944 | 19.98860 | 36912 ft | 435 kts | 181° |
| 2026-05-06 14:48 | 47.10912 | 19.99566 | 36906 ft | 435 kts | 181° |
| 2026-05-06 14:48 | 47.04868 | 20.00230 | 36908 ft | 435 kts | 181° |
| 2026-05-06 14:49 | 46.98831 | 20.00868 | 36905 ft | 435 kts | 181° |
| 2026-05-06 14:49 | 46.92832 | 20.01495 | 36908 ft | 435 kts | 181° |
| 2026-05-06 14:50 | 46.86751 | 20.02130 | 36906 ft | 435 kts | 181° |
| 2026-05-06 14:50 | 46.80748 | 20.02756 | 36908 ft | 435 kts | 182° |
| 2026-05-06 14:51 | 46.74700 | 20.03386 | 36906 ft | 435 kts | 181° |
| 2026-05-06 14:51 | 46.68663 | 20.04014 | 36906 ft | 435 kts | 182° |
| 2026-05-06 14:52 | 46.62625 | 20.04640 | 36913 ft | 435 kts | 182° |
| 2026-05-06 14:52 | 46.56582 | 20.05266 | 36905 ft | 435 kts | 182° |
| 2026-05-06 14:53 | 46.50550 | 20.05889 | 36901 ft | 435 kts | 182° |
| 2026-05-06 14:53 | 46.44503 | 20.06512 | 36903 ft | 435 kts | 182° |
| 2026-05-06 14:54 | 46.38468 | 20.07132 | 36906 ft | 435 kts | 182° |
| 2026-05-06 14:54 | 46.32427 | 20.07752 | 36924 ft | 435 kts | 182° |
| 2026-05-06 14:55 | 46.26369 | 20.08374 | 36895 ft | 437 kts | 182° |
| 2026-05-06 14:55 | 46.20306 | 20.08997 | 36904 ft | 437 kts | 182° |
| 2026-05-06 14:56 | 46.14253 | 20.09653 | 36902 ft | 437 kts | 180° |
| 2026-05-06 14:56 | 46.08197 | 20.10627 | 36906 ft | 437 kts | 179° |
| 2026-05-06 14:57 | 46.02172 | 20.11678 | 36901 ft | 436 kts | 179° |
| 2026-05-06 14:57 | 45.96145 | 20.12703 | 36905 ft | 436 kts | 179° |
| 2026-05-06 14:58 | 45.90120 | 20.13697 | 36913 ft | 435 kts | 179° |
| 2026-05-06 14:58 | 45.84151 | 20.14672 | 36908 ft | 435 kts | 179° |
| 2026-05-06 14:59 | 45.78142 | 20.15650 | 36914 ft | 434 kts | 179° |
| 2026-05-06 14:59 | 45.72139 | 20.16626 | 36912 ft | 435 kts | 179° |
| 2026-05-06 15:00 | 45.66124 | 20.17600 | 36910 ft | 435 kts | 179° |
| 2026-05-06 15:00 | 45.60101 | 20.18575 | 36914 ft | 436 kts | 179° |
| 2026-05-06 15:01 | 45.54088 | 20.19546 | 36907 ft | 436 kts | 179° |
| 2026-05-06 15:01 | 45.48048 | 20.20520 | 36917 ft | 437 kts | 179° |
| 2026-05-06 15:02 | 45.42004 | 20.21493 | 36924 ft | 437 kts | 179° |
| 2026-05-06 15:02 | 45.35942 | 20.22465 | 36916 ft | 438 kts | 179° |
| 2026-05-06 15:03 | 45.29885 | 20.23435 | 36915 ft | 439 kts | 179° |
| 2026-05-06 15:03 | 45.23813 | 20.24405 | 36922 ft | 439 kts | 179° |
| 2026-05-06 15:04 | 45.17730 | 20.25376 | 36928 ft | 440 kts | 179° |
| 2026-05-06 15:04 | 45.11650 | 20.26344 | 36932 ft | 440 kts | 178° |
| 2026-05-06 15:05 | 45.05578 | 20.27308 | 36935 ft | 440 kts | 178° |
| 2026-05-06 15:05 | 44.99495 | 20.28271 | 36942 ft | 439 kts | 178° |
| 2026-05-06 15:06 | 44.93435 | 20.29230 | 36937 ft | 439 kts | 178° |
| 2026-05-06 15:06 | 44.87355 | 20.30190 | 36937 ft | 439 kts | 178° |
| 2026-05-06 15:07 | 44.82307 | 20.30984 | 36937 ft | 439 kts | 178° |
| 2026-05-06 15:07 | 44.76241 | 20.31938 | 36937 ft | 438 kts | 178° |
| 2026-05-06 15:08 | 44.70178 | 20.32889 | 36942 ft | 438 kts | 178° |
| 2026-05-06 15:08 | 44.64120 | 20.33837 | 36925 ft | 438 kts | 178° |
| 2026-05-06 15:09 | 44.58068 | 20.34782 | 36926 ft | 438 kts | 178° |
| 2026-05-06 15:09 | 44.51998 | 20.35727 | 36919 ft | 438 kts | 178° |
| 2026-05-06 15:10 | 44.45945 | 20.36668 | 36922 ft | 438 kts | 178° |
| 2026-05-06 15:10 | 44.39895 | 20.37608 | 36915 ft | 438 kts | 178° |
| 2026-05-06 15:11 | 44.33830 | 20.38547 | 36919 ft | 438 kts | 178° |
| 2026-05-06 15:11 | 44.27767 | 20.39484 | 36921 ft | 438 kts | 178° |
| 2026-05-06 15:12 | 44.21707 | 20.40419 | 36918 ft | 438 kts | 178° |
| 2026-05-06 15:12 | 44.15640 | 20.41352 | 36917 ft | 438 kts | 178° |
| 2026-05-06 15:13 | 44.09574 | 20.42285 | 36923 ft | 439 kts | 178° |
| 2026-05-06 15:13 | 44.03500 | 20.43216 | 36922 ft | 439 kts | 178° |
| 2026-05-06 15:14 | 43.97432 | 20.44144 | 36934 ft | 439 kts | 178° |
| 2026-05-06 15:14 | 43.91354 | 20.45072 | 36930 ft | 440 kts | 178° |
| 2026-05-06 15:15 | 43.85265 | 20.46000 | 36939 ft | 439 kts | 177° |
| 2026-05-06 15:15 | 43.79188 | 20.46923 | 36937 ft | 439 kts | 178° |
| 2026-05-06 15:16 | 43.73159 | 20.47838 | 36939 ft | 439 kts | 178° |
| 2026-05-06 15:16 | 43.67092 | 20.48757 | 36930 ft | 438 kts | 178° |
| 2026-05-06 15:17 | 43.61045 | 20.49671 | 36958 ft | 436 kts | 178° |
| 2026-05-06 15:17 | 43.54995 | 20.50583 | 36916 ft | 437 kts | 178° |
| 2026-05-06 15:18 | 43.48964 | 20.51491 | 36962 ft | 436 kts | 178° |
| 2026-05-06 15:18 | 43.42916 | 20.52400 | 36953 ft | 437 kts | 178° |
| 2026-05-06 15:19 | 43.36874 | 20.53305 | 36963 ft | 438 kts | 178° |
| 2026-05-06 15:19 | 43.30809 | 20.54212 | 36962 ft | 439 kts | 178° |
| 2026-05-06 15:20 | 43.24733 | 20.55120 | 36967 ft | 439 kts | 178° |
| 2026-05-06 15:20 | 43.18658 | 20.56028 | 36979 ft | 439 kts | 178° |
| 2026-05-06 15:21 | 43.12571 | 20.56935 | 36982 ft | 441 kts | 178° |
| 2026-05-06 15:21 | 43.06464 | 20.57844 | 36979 ft | 441 kts | 178° |
| 2026-05-06 15:22 | 43.00389 | 20.59082 | 36981 ft | 446 kts | 167° |
| 2026-05-06 15:22 | 42.94541 | 20.62043 | 36990 ft | 449 kts | 162° |
| 2026-05-06 15:23 | 42.88745 | 20.65204 | 37001 ft | 449 kts | 162° |
| 2026-05-06 15:23 | 42.82943 | 20.68317 | 37003 ft | 448 kts | 162° |
| 2026-05-06 15:24 | 42.77107 | 20.71400 | 37003 ft | 448 kts | 162° |
| 2026-05-06 15:24 | 42.71337 | 20.74427 | 37015 ft | 447 kts | 162° |
| 2026-05-06 15:25 | 42.65533 | 20.77465 | 37012 ft | 447 kts | 162° |
| 2026-05-06 15:25 | 42.59719 | 20.80503 | 37020 ft | 447 kts | 162° |
| 2026-05-06 15:26 | 42.53932 | 20.83523 | 37019 ft | 446 kts | 162° |
| 2026-05-06 15:26 | 42.48151 | 20.86534 | 37015 ft | 446 kts | 162° |
| 2026-05-06 15:27 | 42.42348 | 20.89550 | 37022 ft | 446 kts | 162° |
| 2026-05-06 15:27 | 42.36553 | 20.92556 | 37030 ft | 446 kts | 163° |
| 2026-05-06 15:28 | 42.30764 | 20.95555 | 37026 ft | 446 kts | 162° |
| 2026-05-06 15:28 | 42.24953 | 20.98559 | 37008 ft | 447 kts | 162° |
| 2026-05-06 15:29 | 42.19143 | 21.01557 | 37022 ft | 447 kts | 162° |
| 2026-05-06 15:29 | 42.13321 | 21.04554 | 37026 ft | 449 kts | 163° |
| 2026-05-06 15:30 | 42.07342 | 21.06738 | 37017 ft | 444 kts | 173° |
| 2026-05-06 15:30 | 42.01260 | 21.08178 | 37002 ft | 444 kts | 174° |
| 2026-05-06 15:31 | 41.95174 | 21.09611 | 36996 ft | 444 kts | 174° |
| 2026-05-06 15:31 | 41.89088 | 21.11090 | 37005 ft | 445 kts | 173° |
| 2026-05-06 15:32 | 41.79962 | 21.13342 | 37005 ft | 445 kts | 173° |
| 2026-05-06 15:32 | 41.73871 | 21.14843 | 37004 ft | 444 kts | 173° |
| 2026-05-06 15:33 | 41.67799 | 21.16336 | 37016 ft | 445 kts | 173° |
| 2026-05-06 15:33 | 41.61747 | 21.17820 | 37003 ft | 445 kts | 173° |
| 2026-05-06 15:34 | 41.55666 | 21.19309 | 37015 ft | 445 kts | 173° |
| 2026-05-06 15:34 | 41.49582 | 21.20797 | 37023 ft | 444 kts | 173° |
| 2026-05-06 15:35 | 41.43504 | 21.22279 | 37027 ft | 444 kts | 174° |
| 2026-05-06 15:35 | 41.37456 | 21.23754 | 37042 ft | 442 kts | 173° |
| 2026-05-06 15:36 | 41.31392 | 21.25228 | 37044 ft | 443 kts | 173° |
| 2026-05-06 15:36 | 41.25302 | 21.26704 | 37019 ft | 444 kts | 174° |
| 2026-05-06 15:37 | 41.19213 | 21.28179 | 37047 ft | 446 kts | 174° |
| 2026-05-06 15:37 | 41.13104 | 21.29655 | 37018 ft | 446 kts | 173° |
| 2026-05-06 15:38 | 41.07047 | 21.31120 | 37035 ft | 440 kts | 174° |
| 2026-05-06 15:38 | 41.01035 | 21.32567 | 36880 ft | 441 kts | 174° |
| 2026-05-06 15:39 | 40.98020 | 21.33293 | 36562 ft | 436 kts | 174° |
| 2026-05-06 15:39 | 40.95057 | 21.34008 | 36166 ft | 432 kts | 174° |
| 2026-05-06 15:39 | 40.92106 | 21.34717 | 35819 ft | 427 kts | 174° |
| 2026-05-06 15:39 | 40.89201 | 21.35372 | 35429 ft | 422 kts | 178° |
| 2026-05-06 15:40 | 40.86302 | 21.35550 | 35031 ft | 415 kts | 187° |
| 2026-05-06 15:40 | 40.83440 | 21.35125 | 34596 ft | 410 kts | 193° |
| 2026-05-06 15:40 | 40.80642 | 21.34546 | 34233 ft | 407 kts | 193° |
| 2026-05-06 15:40 | 40.77845 | 21.33951 | 33801 ft | 405 kts | 193° |
| 2026-05-06 15:41 | 40.75068 | 21.33371 | 33402 ft | 403 kts | 193° |
| 2026-05-06 15:41 | 40.72299 | 21.32807 | 32988 ft | 401 kts | 193° |
| 2026-05-06 15:41 | 40.69559 | 21.32261 | 32620 ft | 397 kts | 193° |
| 2026-05-06 15:41 | 40.66837 | 21.31726 | 32258 ft | 394 kts | 193° |
| 2026-05-06 15:42 | 40.64130 | 21.31197 | 31886 ft | 392 kts | 193° |
| 2026-05-06 15:42 | 40.61449 | 21.30675 | 31529 ft | 389 kts | 193° |
| 2026-05-06 15:42 | 40.58779 | 21.30156 | 31173 ft | 387 kts | 193° |
| 2026-05-06 15:42 | 40.56116 | 21.29637 | 30810 ft | 385 kts | 193° |
| 2026-05-06 15:43 | 40.53477 | 21.29124 | 30465 ft | 383 kts | 193° |
| 2026-05-06 15:43 | 40.50855 | 21.28615 | 30117 ft | 380 kts | 193° |
| 2026-05-06 15:43 | 40.48238 | 21.28106 | 29722 ft | 378 kts | 193° |
| 2026-05-06 15:43 | 40.45667 | 21.27528 | 29336 ft | 372 kts | 199° |
| 2026-05-06 15:44 | 40.43243 | 21.26469 | 28959 ft | 363 kts | 209° |
| 2026-05-06 15:44 | 40.40954 | 21.25096 | 28585 ft | 360 kts | 210° |
| 2026-05-06 15:44 | 40.38733 | 21.23713 | 28218 ft | 357 kts | 211° |
| 2026-05-06 15:44 | 40.36474 | 21.22299 | 27875 ft | 353 kts | 211° |
| 2026-05-06 15:45 | 40.34300 | 21.20945 | 27528 ft | 351 kts | 211° |
| 2026-05-06 15:45 | 40.32073 | 21.19568 | 27167 ft | 349 kts | 210° |
| 2026-05-06 15:45 | 40.29879 | 21.18219 | 26823 ft | 346 kts | 210° |
| 2026-05-06 15:45 | 40.27707 | 21.16891 | 26479 ft | 344 kts | 210° |
| 2026-05-06 15:46 | 40.25573 | 21.15589 | 26153 ft | 342 kts | 210° |
| 2026-05-06 15:46 | 40.23425 | 21.14281 | 25808 ft | 340 kts | 210° |
| 2026-05-06 15:46 | 40.21289 | 21.12982 | 25495 ft | 339 kts | 210° |
| 2026-05-06 15:46 | 40.19146 | 21.11680 | 25162 ft | 340 kts | 210° |
| 2026-05-06 15:47 | 40.16998 | 21.10374 | 24814 ft | 342 kts | 210° |
| 2026-05-06 15:47 | 40.14814 | 21.09047 | 24469 ft | 351 kts | 210° |
| 2026-05-06 15:47 | 40.12575 | 21.07688 | 24123 ft | 354 kts | 210° |
| 2026-05-06 15:47 | 40.10341 | 21.06337 | 23742 ft | 354 kts | 210° |
| 2026-05-06 15:48 | 40.08113 | 21.04990 | 23364 ft | 352 kts | 209° |
| 2026-05-06 15:48 | 40.05896 | 21.03652 | 22979 ft | 351 kts | 209° |
| 2026-05-06 15:48 | 40.03683 | 21.02318 | 22599 ft | 348 kts | 209° |
| 2026-05-06 15:48 | 40.01494 | 21.00998 | 22260 ft | 346 kts | 209° |
| 2026-05-06 15:49 | 39.99317 | 20.99686 | 21910 ft | 344 kts | 209° |
| 2026-05-06 15:49 | 39.97158 | 20.98385 | 21568 ft | 341 kts | 209° |
| 2026-05-06 15:49 | 39.95008 | 20.97090 | 21231 ft | 339 kts | 208° |
| 2026-05-06 15:49 | 39.92869 | 20.95803 | 20895 ft | 337 kts | 208° |
| 2026-05-06 15:50 | 39.90746 | 20.94527 | 20564 ft | 335 kts | 208° |
| 2026-05-06 15:50 | 39.88635 | 20.93258 | 20222 ft | 334 kts | 208° |
| 2026-05-06 15:50 | 39.86534 | 20.91997 | 19902 ft | 332 kts | 208° |
| 2026-05-06 15:50 | 39.84438 | 20.90739 | 19567 ft | 330 kts | 208° |
| 2026-05-06 15:51 | 39.82366 | 20.89496 | 19222 ft | 329 kts | 208° |
| 2026-05-06 15:51 | 39.80294 | 20.88254 | 18907 ft | 327 kts | 208° |
| 2026-05-06 15:51 | 39.78225 | 20.87015 | 18585 ft | 326 kts | 208° |
| 2026-05-06 15:51 | 39.76163 | 20.85781 | 18231 ft | 326 kts | 208° |
| 2026-05-06 15:52 | 39.74109 | 20.84552 | 17850 ft | 324 kts | 208° |
| 2026-05-06 15:52 | 39.72068 | 20.83325 | 17515 ft | 322 kts | 210° |
| 2026-05-06 15:52 | 39.70289 | 20.81653 | 17167 ft | 314 kts | 229° |
| 2026-05-06 15:52 | 39.69015 | 20.79372 | 16700 ft | 312 kts | 246° |
| 2026-05-06 15:53 | 39.68116 | 20.76827 | 16372 ft | 309 kts | 248° |
| 2026-05-06 15:53 | 39.67273 | 20.74277 | 16033 ft | 307 kts | 249° |
| 2026-05-06 15:53 | 39.66723 | 20.72599 | 15806 ft | 306 kts | 249° |
| 2026-05-06 15:53 | 39.65886 | 20.70057 | 15484 ft | 305 kts | 249° |
| 2026-05-06 15:54 | 39.65051 | 20.67547 | 15161 ft | 303 kts | 248° |
| 2026-05-06 15:54 | 39.64210 | 20.65043 | 14828 ft | 301 kts | 248° |
| 2026-05-06 15:54 | 39.63372 | 20.62563 | 14536 ft | 299 kts | 248° |
| 2026-05-06 15:54 | 39.62265 | 20.59300 | 14099 ft | 298 kts | 248° |
| 2026-05-06 15:55 | 39.61701 | 20.57643 | 13893 ft | 297 kts | 248° |
| 2026-05-06 15:55 | 39.60868 | 20.55197 | 13536 ft | 296 kts | 248° |
| 2026-05-06 15:55 | 39.60038 | 20.52765 | 13186 ft | 294 kts | 248° |
| 2026-05-06 15:55 | 39.59216 | 20.50361 | 12875 ft | 291 kts | 248° |
| 2026-05-06 15:56 | 39.58398 | 20.47966 | 12577 ft | 289 kts | 248° |
| 2026-05-06 15:56 | 39.57585 | 20.45588 | 12258 ft | 289 kts | 248° |
| 2026-05-06 15:56 | 39.56773 | 20.43218 | 11945 ft | 287 kts | 248° |
| 2026-05-06 15:56 | 39.55965 | 20.40859 | 11638 ft | 286 kts | 248° |
| 2026-05-06 15:57 | 39.55159 | 20.38509 | 11316 ft | 285 kts | 248° |
| 2026-05-06 15:57 | 39.54335 | 20.36177 | 11006 ft | 284 kts | 243° |
| 2026-05-06 15:57 | 39.53147 | 20.34181 | 10691 ft | 286 kts | 224° |
| 2026-05-06 15:57 | 39.51516 | 20.32654 | 10400 ft | 286 kts | 211° |
| 2026-05-06 15:58 | 39.49723 | 20.31623 | 10164 ft | 285 kts | 205° |
| 2026-05-06 15:58 | 39.47902 | 20.30691 | 9989 ft | 279 kts | 205° |
| 2026-05-06 15:58 | 39.46131 | 20.29679 | 9676 ft | 278 kts | 208° |
| 2026-05-06 15:58 | 39.44407 | 20.28559 | 9382 ft | 276 kts | 211° |
| 2026-05-06 15:59 | 39.42752 | 20.27315 | 9084 ft | 273 kts | 214° |
| 2026-05-06 15:59 | 39.41176 | 20.25981 | 8814 ft | 271 kts | 218° |
| 2026-05-06 15:59 | 39.39674 | 20.24516 | 8513 ft | 271 kts | 221° |
| 2026-05-06 15:59 | 39.38254 | 20.22932 | 8228 ft | 269 kts | 224° |
| 2026-05-06 16:00 | 39.36918 | 20.21252 | 7946 ft | 267 kts | 227° |
| 2026-05-06 16:00 | 39.35663 | 20.19490 | 7665 ft | 265 kts | 230° |
| 2026-05-06 16:00 | 39.34497 | 20.17674 | 7376 ft | 264 kts | 233° |
| 2026-05-06 16:00 | 39.33386 | 20.15784 | 7100 ft | 262 kts | 234° |
| 2026-05-06 16:01 | 39.32350 | 20.13849 | 6807 ft | 262 kts | 238° |
| 2026-05-06 16:01 | 39.31429 | 20.11824 | 6528 ft | 261 kts | 242° |
| 2026-05-06 16:01 | 39.30611 | 20.09733 | 6231 ft | 261 kts | 245° |
| 2026-05-06 16:01 | 39.29882 | 20.07597 | 5926 ft | 260 kts | 248° |
| 2026-05-06 16:02 | 39.29232 | 20.05431 | 5648 ft | 259 kts | 250° |
| 2026-05-06 16:02 | 39.28741 | 20.03205 | 5343 ft | 258 kts | 268° |
| 2026-05-06 16:02 | 39.29203 | 20.01057 | 5179 ft | 254 kts | 303° |
| 2026-05-06 16:02 | 39.30576 | 19.99665 | 5017 ft | 250 kts | 340° |
| 2026-05-06 16:03 | 39.32254 | 19.99179 | 4884 ft | 244 kts | 348° |
| 2026-05-06 16:03 | 39.33890 | 19.98752 | 4769 ft | 237 kts | 347° |
| 2026-05-06 16:03 | 39.35489 | 19.98303 | 4587 ft | 233 kts | 346° |
| 2026-05-06 16:03 | 39.37062 | 19.97855 | 4348 ft | 231 kts | 346° |
| 2026-05-06 16:04 | 39.38631 | 19.97404 | 4127 ft | 229 kts | 346° |
| 2026-05-06 16:04 | 39.40175 | 19.96959 | 3890 ft | 228 kts | 346° |
| 2026-05-06 16:04 | 39.41731 | 19.96510 | 3659 ft | 227 kts | 346° |
| 2026-05-06 16:04 | 39.43265 | 19.96066 | 3468 ft | 224 kts | 346° |
| 2026-05-06 16:05 | 39.44762 | 19.95637 | 3200 ft | 222 kts | 347° |
| 2026-05-06 16:05 | 39.46271 | 19.95198 | 2941 ft | 218 kts | 347° |
| 2026-05-06 16:05 | 39.47750 | 19.94787 | 2617 ft | 216 kts | 347° |
| 2026-05-06 16:05 | 39.49195 | 19.94361 | 2295 ft | 209 kts | 346° |
| 2026-05-06 16:06 | 39.50569 | 19.93961 | 2003 ft | 196 kts | 347° |
| 2026-05-06 16:06 | 39.51857 | 19.93589 | 1711 ft | 185 kts | 346° |
| 2026-05-06 16:06 | 39.53064 | 19.93240 | 1466 ft | 169 kts | 346° |
| 2026-05-06 16:06 | 39.54175 | 19.92920 | 1200 ft | 159 kts | 347° |
| 2026-05-06 16:07 | 39.55249 | 19.92610 | 948 ft | 159 kts | 347° |
| 2026-05-06 16:07 | 39.56303 | 19.92288 | 747 ft | 158 kts | 346° |
| 2026-05-06 16:07 | 39.57394 | 19.91941 | 529 ft | 159 kts | 347° |
| 2026-05-06 16:07 | 39.58456 | 19.91676 | 262 ft | 158 kts | 348° |
| 2026-05-06 16:08 | 39.59531 | 19.91387 | 19 ft | 152 kts | 347° |
| 2026-05-06 16:08 | 39.60473 | 19.91142 | 5 ft | 121 kts | 348° |
| 2026-05-06 16:08 | 39.61069 | 19.90987 | 5 ft | 34 kts | 348° |
| 2026-05-06 16:08 | 39.61230 | 19.90977 | 8 ft | 15 kts | 63° |
| 2026-05-06 16:09 | 39.61183 | 19.91084 | 7 ft | 14 kts | 152° |
| 2026-05-06 16:09 | 39.61089 | 19.91111 | 8 ft | 14 kts | 168° |
| 2026-05-06 16:09 | 39.60999 | 19.91137 | 7 ft | 13 kts | 167° |
| 2026-05-06 16:09 | 39.60912 | 19.91159 | 7 ft | 13 kts | 169° |
| 2026-05-06 16:10 | 39.60826 | 19.91182 | 6 ft | 12 kts | 167° |
| 2026-05-06 16:10 | 39.60738 | 19.91207 | 8 ft | 14 kts | 168° |
| 2026-05-06 16:10 | 39.60679 | 19.91260 | 7 ft | 9 kts | 71° |
| 2026-05-06 16:10 | 39.60692 | 19.91338 | 7 ft | 9 kts | 80° |
| 2026-05-06 16:11 | 39.60696 | 19.91365 | 7 ft | 0 kts | 79° |